sensor_id;sensor_type;location;lat;lon;timestamp;P1;durP1;ratioP1;P2;durP2;ratioP2
15716;SDS011;7960;50.908;4.204;2023-02-26T00:01:15;6.63;;;3.57;;
15716;SDS011;7960;50.908;4.204;2023-02-26T00:03:43;10.67;;;4.10;;
15716;SDS011;7960;50.908;4.204;2023-02-26T00:06:14;6.23;;;3.70;;
15716;SDS011;7960;50.908;4.204;2023-02-26T00:08:40;8.20;;;3.87;;
15716;SDS011;7960;50.908;4.204;2023-02-26T00:11:08;7.73;;;3.63;;
15716;SDS011;7960;50.908;4.204;2023-02-26T00:13:37;11.27;;;4.90;;
15716;SDS011;7960;50.908;4.204;2023-02-26T00:16:10;12.13;;;4.40;;
15716;SDS011;7960;50.908;4.204;2023-02-26T00:18:42;12.00;;;3.93;;
15716;SDS011;7960;50.908;4.204;2023-02-26T00:21:12;7.93;;;3.90;;
15716;SDS011;7960;50.908;4.204;2023-02-26T00:23:42;12.80;;;4.30;;
15716;SDS011;7960;50.908;4.204;2023-02-26T00:26:09;7.93;;;3.97;;
15716;SDS011;7960;50.908;4.204;2023-02-26T00:28:38;9.87;;;4.00;;
15716;SDS011;7960;50.908;4.204;2023-02-26T00:31:06;10.60;;;4.07;;
15716;SDS011;7960;50.908;4.204;2023-02-26T00:33:33;10.27;;;4.20;;
15716;SDS011;7960;50.908;4.204;2023-02-26T00:36:02;12.50;;;4.20;;
15716;SDS011;7960;50.908;4.204;2023-02-26T00:38:40;11.63;;;4.00;;
15716;SDS011;7960;50.908;4.204;2023-02-26T00:41:11;15.13;;;4.67;;
15716;SDS011;7960;50.908;4.204;2023-02-26T00:43:41;11.80;;;4.80;;
15716;SDS011;7960;50.908;4.204;2023-02-26T00:46:09;9.50;;;4.70;;
15716;SDS011;7960;50.908;4.204;2023-02-26T00:48:48;13.23;;;4.70;;
15716;SDS011;7960;50.908;4.204;2023-02-26T00:51:22;10.27;;;4.43;;
15716;SDS011;7960;50.908;4.204;2023-02-26T00:53:57;7.93;;;4.63;;
15716;SDS011;7960;50.908;4.204;2023-02-26T00:56:29;8.50;;;4.17;;
15716;SDS011;7960;50.908;4.204;2023-02-26T00:58:58;8.47;;;4.17;;
15716;SDS011;7960;50.908;4.204;2023-02-26T01:01:24;11.97;;;3.90;;
15716;SDS011;7960;50.908;4.204;2023-02-26T01:03:51;9.17;;;3.90;;
15716;SDS011;7960;50.908;4.204;2023-02-26T01:06:19;9.60;;;4.10;;
15716;SDS011;7960;50.908;4.204;2023-02-26T01:08:49;11.60;;;4.33;;
15716;SDS011;7960;50.908;4.204;2023-02-26T01:11:23;12.33;;;4.30;;
15716;SDS011;7960;50.908;4.204;2023-02-26T01:13:51;9.70;;;3.97;;
15716;SDS011;7960;50.908;4.204;2023-02-26T01:16:20;6.50;;;3.60;;
15716;SDS011;7960;50.908;4.204;2023-02-26T01:18:52;11.60;;;4.27;;
15716;SDS011;7960;50.908;4.204;2023-02-26T01:21:24;12.03;;;4.13;;
15716;SDS011;7960;50.908;4.204;2023-02-26T01:23:56;11.30;;;4.00;;
15716;SDS011;7960;50.908;4.204;2023-02-26T01:26:25;10.50;;;4.10;;
15716;SDS011;7960;50.908;4.204;2023-02-26T01:28:53;11.93;;;5.33;;
15716;SDS011;7960;50.908;4.204;2023-02-26T01:31:29;10.43;;;4.10;;
15716;SDS011;7960;50.908;4.204;2023-02-26T01:34:05;5.97;;;3.47;;
15716;SDS011;7960;50.908;4.204;2023-02-26T01:36:38;6.70;;;3.43;;
15716;SDS011;7960;50.908;4.204;2023-02-26T01:39:11;13.50;;;3.77;;
15716;SDS011;7960;50.908;4.204;2023-02-26T01:41:45;9.47;;;4.00;;
15716;SDS011;7960;50.908;4.204;2023-02-26T01:44:18;7.97;;;3.33;;
15716;SDS011;7960;50.908;4.204;2023-02-26T01:47:03;13.37;;;4.63;;
15716;SDS011;7960;50.908;4.204;2023-02-26T01:49:38;9.33;;;3.97;;
15716;SDS011;7960;50.908;4.204;2023-02-26T01:52:05;14.60;;;6.13;;
15716;SDS011;7960;50.908;4.204;2023-02-26T01:54:52;12.87;;;3.87;;
15716;SDS011;7960;50.908;4.204;2023-02-26T01:57:19;6.50;;;3.87;;
15716;SDS011;7960;50.908;4.204;2023-02-26T01:59:47;7.77;;;3.63;;
15716;SDS011;7960;50.908;4.204;2023-02-26T02:02:19;12.20;;;3.70;;
15716;SDS011;7960;50.908;4.204;2023-02-26T02:04:47;9.70;;;3.90;;
15716;SDS011;7960;50.908;4.204;2023-02-26T02:07:15;7.13;;;3.30;;
15716;SDS011;7960;50.908;4.204;2023-02-26T02:09:42;10.07;;;3.67;;
15716;SDS011;7960;50.908;4.204;2023-02-26T02:12:18;5.27;;;3.40;;
15716;SDS011;7960;50.908;4.204;2023-02-26T02:14:58;8.97;;;3.40;;
15716;SDS011;7960;50.908;4.204;2023-02-26T02:17:36;6.13;;;3.37;;
15716;SDS011;7960;50.908;4.204;2023-02-26T02:20:16;12.30;;;3.90;;
15716;SDS011;7960;50.908;4.204;2023-02-26T02:22:57;7.63;;;3.17;;
15716;SDS011;7960;50.908;4.204;2023-02-26T02:25:38;8.57;;;3.80;;
15716;SDS011;7960;50.908;4.204;2023-02-26T02:28:28;7.73;;;3.30;;
15716;SDS011;7960;50.908;4.204;2023-02-26T02:31:05;7.33;;;3.37;;
15716;SDS011;7960;50.908;4.204;2023-02-26T02:33:37;7.07;;;3.13;;
15716;SDS011;7960;50.908;4.204;2023-02-26T02:36:09;8.40;;;3.53;;
15716;SDS011;7960;50.908;4.204;2023-02-26T02:38:41;5.23;;;3.40;;
15716;SDS011;7960;50.908;4.204;2023-02-26T02:41:14;7.87;;;3.27;;
15716;SDS011;7960;50.908;4.204;2023-02-26T02:43:44;5.30;;;2.77;;
15716;SDS011;7960;50.908;4.204;2023-02-26T02:46:15;15.17;;;3.80;;
15716;SDS011;7960;50.908;4.204;2023-02-26T02:48:48;9.10;;;3.53;;
15716;SDS011;7960;50.908;4.204;2023-02-26T02:51:20;6.17;;;2.60;;
15716;SDS011;7960;50.908;4.204;2023-02-26T02:53:51;9.90;;;3.93;;
15716;SDS011;7960;50.908;4.204;2023-02-26T02:56:22;6.20;;;2.70;;
15716;SDS011;7960;50.908;4.204;2023-02-26T02:58:54;7.53;;;3.20;;
15716;SDS011;7960;50.908;4.204;2023-02-26T03:01:36;6.07;;;2.73;;
15716;SDS011;7960;50.908;4.204;2023-02-26T03:04:05;7.87;;;2.80;;
15716;SDS011;7960;50.908;4.204;2023-02-26T03:06:35;8.60;;;2.80;;
15716;SDS011;7960;50.908;4.204;2023-02-26T03:09:03;9.47;;;2.77;;
15716;SDS011;7960;50.908;4.204;2023-02-26T03:11:31;8.57;;;2.43;;
15716;SDS011;7960;50.908;4.204;2023-02-26T03:13:58;3.57;;;2.40;;
15716;SDS011;7960;50.908;4.204;2023-02-26T03:16:33;5.93;;;2.27;;
15716;SDS011;7960;50.908;4.204;2023-02-26T03:19:13;4.17;;;2.30;;
15716;SDS011;7960;50.908;4.204;2023-02-26T03:21:48;6.80;;;2.43;;
15716;SDS011;7960;50.908;4.204;2023-02-26T03:24:24;3.70;;;2.10;;
15716;SDS011;7960;50.908;4.204;2023-02-26T03:26:56;4.57;;;1.87;;
15716;SDS011;7960;50.908;4.204;2023-02-26T03:29:27;3.20;;;1.80;;
15716;SDS011;7960;50.908;4.204;2023-02-26T03:32:02;2.20;;;1.60;;
15716;SDS011;7960;50.908;4.204;2023-02-26T03:34:36;5.33;;;2.10;;
15716;SDS011;7960;50.908;4.204;2023-02-26T03:37:08;6.13;;;2.00;;
15716;SDS011;7960;50.908;4.204;2023-02-26T03:39:42;3.70;;;1.70;;
15716;SDS011;7960;50.908;4.204;2023-02-26T03:42:21;3.30;;;2.00;;
15716;SDS011;7960;50.908;4.204;2023-02-26T03:44:54;4.70;;;1.70;;
15716;SDS011;7960;50.908;4.204;2023-02-26T03:47:24;5.33;;;1.80;;
15716;SDS011;7960;50.908;4.204;2023-02-26T03:49:54;3.73;;;1.70;;
15716;SDS011;7960;50.908;4.204;2023-02-26T03:52:26;3.43;;;1.60;;
15716;SDS011;7960;50.908;4.204;2023-02-26T03:54:55;5.73;;;1.77;;
15716;SDS011;7960;50.908;4.204;2023-02-26T03:57:26;3.20;;;1.43;;
15716;SDS011;7960;50.908;4.204;2023-02-26T03:59:53;6.40;;;2.40;;
15716;SDS011;7960;50.908;4.204;2023-02-26T04:02:21;4.87;;;1.67;;
15716;SDS011;7960;50.908;4.204;2023-02-26T04:04:55;8.97;;;1.93;;
15716;SDS011;7960;50.908;4.204;2023-02-26T04:07:26;3.83;;;1.57;;
15716;SDS011;7960;50.908;4.204;2023-02-26T04:09:54;3.67;;;1.70;;
15716;SDS011;7960;50.908;4.204;2023-02-26T04:12:22;3.03;;;1.90;;
15716;SDS011;7960;50.908;4.204;2023-02-26T04:14:50;4.23;;;2.10;;
15716;SDS011;7960;50.908;4.204;2023-02-26T04:17:17;4.97;;;1.90;;
15716;SDS011;7960;50.908;4.204;2023-02-26T04:19:45;4.77;;;1.90;;
15716;SDS011;7960;50.908;4.204;2023-02-26T04:22:12;7.40;;;1.80;;
15716;SDS011;7960;50.908;4.204;2023-02-26T04:24:39;3.30;;;2.37;;
15716;SDS011;7960;50.908;4.204;2023-02-26T04:27:06;3.83;;;1.80;;
15716;SDS011;7960;50.908;4.204;2023-02-26T04:29:33;6.93;;;2.07;;
15716;SDS011;7960;50.908;4.204;2023-02-26T04:32:00;3.17;;;2.00;;
15716;SDS011;7960;50.908;4.204;2023-02-26T04:34:26;4.73;;;2.00;;
15716;SDS011;7960;50.908;4.204;2023-02-26T04:36:54;2.23;;;1.47;;
15716;SDS011;7960;50.908;4.204;2023-02-26T04:39:21;4.23;;;1.60;;
15716;SDS011;7960;50.908;4.204;2023-02-26T04:41:48;3.90;;;1.77;;
15716;SDS011;7960;50.908;4.204;2023-02-26T04:44:15;6.10;;;2.03;;
15716;SDS011;7960;50.908;4.204;2023-02-26T04:46:42;2.17;;;1.60;;
15716;SDS011;7960;50.908;4.204;2023-02-26T04:49:08;4.83;;;1.90;;
15716;SDS011;7960;50.908;4.204;2023-02-26T04:51:35;5.07;;;1.80;;
15716;SDS011;7960;50.908;4.204;2023-02-26T04:54:04;6.30;;;1.90;;
15716;SDS011;7960;50.908;4.204;2023-02-26T04:56:30;3.37;;;1.63;;
15716;SDS011;7960;50.908;4.204;2023-02-26T04:58:57;4.47;;;2.03;;
15716;SDS011;7960;50.908;4.204;2023-02-26T05:01:24;8.13;;;1.93;;
15716;SDS011;7960;50.908;4.204;2023-02-26T05:03:51;2.90;;;1.80;;
15716;SDS011;7960;50.908;4.204;2023-02-26T05:06:18;3.97;;;1.87;;
15716;SDS011;7960;50.908;4.204;2023-02-26T05:08:45;2.63;;;1.43;;
15716;SDS011;7960;50.908;4.204;2023-02-26T05:11:13;4.33;;;1.80;;
15716;SDS011;7960;50.908;4.204;2023-02-26T05:13:40;4.60;;;1.73;;
15716;SDS011;7960;50.908;4.204;2023-02-26T05:16:07;4.13;;;1.90;;
15716;SDS011;7960;50.908;4.204;2023-02-26T05:18:34;3.90;;;1.50;;
15716;SDS011;7960;50.908;4.204;2023-02-26T05:21:01;3.03;;;1.57;;
15716;SDS011;7960;50.908;4.204;2023-02-26T05:23:29;11.00;;;2.00;;
15716;SDS011;7960;50.908;4.204;2023-02-26T05:25:56;4.50;;;2.00;;
15716;SDS011;7960;50.908;4.204;2023-02-26T05:28:25;5.43;;;1.93;;
15716;SDS011;7960;50.908;4.204;2023-02-26T05:30:52;4.10;;;1.73;;
15716;SDS011;7960;50.908;4.204;2023-02-26T05:33:21;3.20;;;1.43;;
15716;SDS011;7960;50.908;4.204;2023-02-26T05:35:47;7.17;;;1.70;;
15716;SDS011;7960;50.908;4.204;2023-02-26T05:38:14;4.40;;;2.17;;
15716;SDS011;7960;50.908;4.204;2023-02-26T05:40:41;5.57;;;1.70;;
15716;SDS011;7960;50.908;4.204;2023-02-26T05:43:08;6.83;;;1.83;;
15716;SDS011;7960;50.908;4.204;2023-02-26T05:45:36;2.60;;;1.63;;
15716;SDS011;7960;50.908;4.204;2023-02-26T05:48:03;5.13;;;1.70;;
15716;SDS011;7960;50.908;4.204;2023-02-26T05:50:30;4.00;;;1.57;;
15716;SDS011;7960;50.908;4.204;2023-02-26T05:52:57;5.60;;;1.90;;
15716;SDS011;7960;50.908;4.204;2023-02-26T05:55:24;3.93;;;1.47;;
15716;SDS011;7960;50.908;4.204;2023-02-26T05:57:50;6.77;;;1.50;;
15716;SDS011;7960;50.908;4.204;2023-02-26T06:00:17;9.13;;;1.67;;
15716;SDS011;7960;50.908;4.204;2023-02-26T06:02:48;4.77;;;1.83;;
15716;SDS011;7960;50.908;4.204;2023-02-26T06:05:14;9.03;;;1.90;;
15716;SDS011;7960;50.908;4.204;2023-02-26T06:07:41;3.33;;;2.00;;
15716;SDS011;7960;50.908;4.204;2023-02-26T06:10:09;6.63;;;1.47;;
15716;SDS011;7960;50.908;4.204;2023-02-26T06:12:37;3.57;;;1.50;;
15716;SDS011;7960;50.908;4.204;2023-02-26T06:15:05;10.67;;;2.00;;
15716;SDS011;7960;50.908;4.204;2023-02-26T06:17:33;2.93;;;1.47;;
15716;SDS011;7960;50.908;4.204;2023-02-26T06:20:02;6.47;;;1.70;;
15716;SDS011;7960;50.908;4.204;2023-02-26T06:22:29;3.73;;;1.27;;
15716;SDS011;7960;50.908;4.204;2023-02-26T06:24:56;5.87;;;1.50;;
15716;SDS011;7960;50.908;4.204;2023-02-26T06:27:24;1.93;;;1.30;;
15716;SDS011;7960;50.908;4.204;2023-02-26T06:29:51;5.23;;;1.90;;
15716;SDS011;7960;50.908;4.204;2023-02-26T06:32:17;3.67;;;1.40;;
15716;SDS011;7960;50.908;4.204;2023-02-26T06:34:44;5.80;;;1.47;;
15716;SDS011;7960;50.908;4.204;2023-02-26T06:37:12;1.60;;;1.23;;
15716;SDS011;7960;50.908;4.204;2023-02-26T06:39:39;5.33;;;1.70;;
15716;SDS011;7960;50.908;4.204;2023-02-26T06:42:06;4.10;;;1.67;;
15716;SDS011;7960;50.908;4.204;2023-02-26T06:44:33;2.47;;;1.20;;
15716;SDS011;7960;50.908;4.204;2023-02-26T06:47:00;2.40;;;1.60;;
15716;SDS011;7960;50.908;4.204;2023-02-26T06:49:27;3.77;;;1.60;;
15716;SDS011;7960;50.908;4.204;2023-02-26T06:51:54;1.30;;;1.20;;
15716;SDS011;7960;50.908;4.204;2023-02-26T06:54:22;3.17;;;1.40;;
15716;SDS011;7960;50.908;4.204;2023-02-26T06:56:49;3.00;;;1.10;;
15716;SDS011;7960;50.908;4.204;2023-02-26T06:59:16;5.67;;;1.50;;
15716;SDS011;7960;50.908;4.204;2023-02-26T07:01:43;2.33;;;1.50;;
15716;SDS011;7960;50.908;4.204;2023-02-26T07:04:09;3.93;;;1.50;;
15716;SDS011;7960;50.908;4.204;2023-02-26T07:06:36;5.07;;;1.20;;
15716;SDS011;7960;50.908;4.204;2023-02-26T07:09:03;2.60;;;1.40;;
15716;SDS011;7960;50.908;4.204;2023-02-26T07:11:31;1.83;;;1.17;;
15716;SDS011;7960;50.908;4.204;2023-02-26T07:13:58;1.60;;;1.50;;
15716;SDS011;7960;50.908;4.204;2023-02-26T07:16:25;4.60;;;1.40;;
15716;SDS011;7960;50.908;4.204;2023-02-26T07:18:52;2.23;;;1.20;;
15716;SDS011;7960;50.908;4.204;2023-02-26T07:21:19;3.20;;;1.40;;
15716;SDS011;7960;50.908;4.204;2023-02-26T07:23:46;3.50;;;1.50;;
15716;SDS011;7960;50.908;4.204;2023-02-26T07:26:12;6.23;;;1.60;;
15716;SDS011;7960;50.908;4.204;2023-02-26T07:28:42;5.93;;;1.67;;
15716;SDS011;7960;50.908;4.204;2023-02-26T07:31:09;6.03;;;1.40;;
15716;SDS011;7960;50.908;4.204;2023-02-26T07:33:36;1.90;;;1.17;;
15716;SDS011;7960;50.908;4.204;2023-02-26T07:36:04;3.33;;;1.70;;
15716;SDS011;7960;50.908;4.204;2023-02-26T07:38:31;1.77;;;1.20;;
15716;SDS011;7960;50.908;4.204;2023-02-26T07:40:57;3.13;;;1.33;;
15716;SDS011;7960;50.908;4.204;2023-02-26T07:43:24;2.80;;;1.37;;
15716;SDS011;7960;50.908;4.204;2023-02-26T07:45:52;4.23;;;1.37;;
15716;SDS011;7960;50.908;4.204;2023-02-26T07:48:19;4.10;;;1.30;;
15716;SDS011;7960;50.908;4.204;2023-02-26T07:50:46;3.20;;;1.50;;
15716;SDS011;7960;50.908;4.204;2023-02-26T07:53:16;2.77;;;1.53;;
15716;SDS011;7960;50.908;4.204;2023-02-26T07:55:43;4.87;;;1.40;;
15716;SDS011;7960;50.908;4.204;2023-02-26T07:58:09;3.27;;;1.37;;
15716;SDS011;7960;50.908;4.204;2023-02-26T08:00:36;3.60;;;1.50;;
15716;SDS011;7960;50.908;4.204;2023-02-26T08:03:04;7.37;;;1.40;;
15716;SDS011;7960;50.908;4.204;2023-02-26T08:05:31;3.87;;;1.30;;
15716;SDS011;7960;50.908;4.204;2023-02-26T08:07:59;8.40;;;1.77;;
15716;SDS011;7960;50.908;4.204;2023-02-26T08:10:26;4.40;;;1.40;;
15716;SDS011;7960;50.908;4.204;2023-02-26T08:12:53;3.03;;;1.57;;
15716;SDS011;7960;50.908;4.204;2023-02-26T08:15:20;3.90;;;1.50;;
15716;SDS011;7960;50.908;4.204;2023-02-26T08:17:47;2.73;;;1.80;;
15716;SDS011;7960;50.908;4.204;2023-02-26T08:20:15;7.30;;;1.63;;
15716;SDS011;7960;50.908;4.204;2023-02-26T08:22:42;3.43;;;1.37;;
15716;SDS011;7960;50.908;4.204;2023-02-26T08:25:09;3.77;;;1.57;;
15716;SDS011;7960;50.908;4.204;2023-02-26T08:27:36;5.40;;;1.40;;
15716;SDS011;7960;50.908;4.204;2023-02-26T08:30:04;4.27;;;1.73;;
15716;SDS011;7960;50.908;4.204;2023-02-26T08:32:32;3.43;;;1.47;;
15716;SDS011;7960;50.908;4.204;2023-02-26T08:34:59;5.40;;;1.83;;
15716;SDS011;7960;50.908;4.204;2023-02-26T08:37:27;8.83;;;2.10;;
15716;SDS011;7960;50.908;4.204;2023-02-26T08:39:54;3.03;;;1.47;;
15716;SDS011;7960;50.908;4.204;2023-02-26T08:42:21;2.13;;;1.20;;
15716;SDS011;7960;50.908;4.204;2023-02-26T08:44:48;4.80;;;1.70;;
15716;SDS011;7960;50.908;4.204;2023-02-26T08:47:15;3.40;;;1.40;;
15716;SDS011;7960;50.908;4.204;2023-02-26T08:49:42;2.67;;;1.40;;
15716;SDS011;7960;50.908;4.204;2023-02-26T08:52:09;4.80;;;1.47;;
15716;SDS011;7960;50.908;4.204;2023-02-26T08:54:37;3.80;;;1.30;;
15716;SDS011;7960;50.908;4.204;2023-02-26T08:57:04;4.73;;;1.57;;
15716;SDS011;7960;50.908;4.204;2023-02-26T08:59:31;10.87;;;1.77;;
15716;SDS011;7960;50.908;4.204;2023-02-26T09:01:57;3.13;;;2.53;;
15716;SDS011;7960;50.908;4.204;2023-02-26T09:04:24;14.20;;;7.30;;
15716;SDS011;7960;50.908;4.204;2023-02-26T09:06:54;4.53;;;1.60;;
15716;SDS011;7960;50.908;4.204;2023-02-26T09:09:23;3.17;;;1.43;;
15716;SDS011;7960;50.908;4.204;2023-02-26T09:11:51;6.00;;;1.27;;
15716;SDS011;7960;50.908;4.204;2023-02-26T09:14:18;6.23;;;1.20;;
15716;SDS011;7960;50.908;4.204;2023-02-26T09:16:45;7.37;;;1.47;;
15716;SDS011;7960;50.908;4.204;2023-02-26T09:19:12;4.60;;;1.30;;
15716;SDS011;7960;50.908;4.204;2023-02-26T09:21:39;5.63;;;0.93;;
15716;SDS011;7960;50.908;4.204;2023-02-26T09:24:06;1.97;;;1.30;;
15716;SDS011;7960;50.908;4.204;2023-02-26T09:26:33;4.77;;;1.40;;
15716;SDS011;7960;50.908;4.204;2023-02-26T09:29:03;3.90;;;1.10;;
15716;SDS011;7960;50.908;4.204;2023-02-26T09:31:30;1.50;;;1.07;;
15716;SDS011;7960;50.908;4.204;2023-02-26T09:33:57;2.67;;;1.10;;
15716;SDS011;7960;50.908;4.204;2023-02-26T09:36:24;2.47;;;1.10;;
15716;SDS011;7960;50.908;4.204;2023-02-26T09:38:51;3.03;;;1.17;;
15716;SDS011;7960;50.908;4.204;2023-02-26T09:41:21;2.63;;;1.53;;
15716;SDS011;7960;50.908;4.204;2023-02-26T09:44:01;2.73;;;1.50;;
15716;SDS011;7960;50.908;4.204;2023-02-26T09:46:37;1.70;;;0.90;;
15716;SDS011;7960;50.908;4.204;2023-02-26T09:49:15;1.97;;;1.00;;
15716;SDS011;7960;50.908;4.204;2023-02-26T09:51:46;3.90;;;1.47;;
15716;SDS011;7960;50.908;4.204;2023-02-26T09:54:18;2.37;;;1.20;;
15716;SDS011;7960;50.908;4.204;2023-02-26T09:56:48;2.67;;;1.13;;
15716;SDS011;7960;50.908;4.204;2023-02-26T09:59:18;5.23;;;1.50;;
15716;SDS011;7960;50.908;4.204;2023-02-26T10:01:46;6.13;;;1.43;;
15716;SDS011;7960;50.908;4.204;2023-02-26T10:04:22;5.43;;;1.20;;
15716;SDS011;7960;50.908;4.204;2023-02-26T10:06:56;2.07;;;1.43;;
15716;SDS011;7960;50.908;4.204;2023-02-26T10:09:34;2.37;;;1.47;;
15716;SDS011;7960;50.908;4.204;2023-02-26T10:12:13;1.83;;;1.17;;
15716;SDS011;7960;50.908;4.204;2023-02-26T10:14:46;2.40;;;1.23;;
15716;SDS011;7960;50.908;4.204;2023-02-26T10:17:21;1.37;;;1.10;;
15716;SDS011;7960;50.908;4.204;2023-02-26T10:19:52;1.97;;;1.20;;
15716;SDS011;7960;50.908;4.204;2023-02-26T10:22:27;3.23;;;1.27;;
15716;SDS011;7960;50.908;4.204;2023-02-26T10:24:59;4.50;;;1.30;;
15716;SDS011;7960;50.908;4.204;2023-02-26T10:27:35;0.87;;;0.87;;
15716;SDS011;7960;50.908;4.204;2023-02-26T10:30:15;1.83;;;1.23;;
15716;SDS011;7960;50.908;4.204;2023-02-26T10:32:51;1.67;;;1.10;;
15716;SDS011;7960;50.908;4.204;2023-02-26T10:35:25;3.87;;;1.53;;
15716;SDS011;7960;50.908;4.204;2023-02-26T10:37:55;1.33;;;0.90;;
15716;SDS011;7960;50.908;4.204;2023-02-26T10:40:26;1.83;;;1.27;;
15716;SDS011;7960;50.908;4.204;2023-02-26T10:42:59;3.17;;;1.43;;
15716;SDS011;7960;50.908;4.204;2023-02-26T10:45:38;1.17;;;1.07;;
15716;SDS011;7960;50.908;4.204;2023-02-26T10:48:17;1.53;;;1.20;;
15716;SDS011;7960;50.908;4.204;2023-02-26T10:50:54;1.87;;;1.20;;
15716;SDS011;7960;50.908;4.204;2023-02-26T10:53:23;3.90;;;2.10;;
15716;SDS011;7960;50.908;4.204;2023-02-26T10:55:51;4.80;;;1.70;;
15716;SDS011;7960;50.908;4.204;2023-02-26T10:58:25;2.90;;;1.10;;
15716;SDS011;7960;50.908;4.204;2023-02-26T11:00:54;3.03;;;1.20;;
15716;SDS011;7960;50.908;4.204;2023-02-26T11:03:24;3.33;;;1.50;;
15716;SDS011;7960;50.908;4.204;2023-02-26T11:05:56;1.67;;;1.13;;
15716;SDS011;7960;50.908;4.204;2023-02-26T11:08:25;4.03;;;1.40;;
15716;SDS011;7960;50.908;4.204;2023-02-26T11:10:53;4.07;;;1.20;;
15716;SDS011;7960;50.908;4.204;2023-02-26T11:13:21;3.57;;;1.30;;
15716;SDS011;7960;50.908;4.204;2023-02-26T11:15:50;3.10;;;1.80;;
15716;SDS011;7960;50.908;4.204;2023-02-26T11:18:20;5.00;;;1.90;;
15716;SDS011;7960;50.908;4.204;2023-02-26T11:20:52;6.13;;;3.73;;
15716;SDS011;7960;50.908;4.204;2023-02-26T11:23:21;5.23;;;2.43;;
15716;SDS011;7960;50.908;4.204;2023-02-26T11:25:52;4.60;;;2.60;;
15716;SDS011;7960;50.908;4.204;2023-02-26T11:28:29;2.90;;;1.93;;
15716;SDS011;7960;50.908;4.204;2023-02-26T11:30:59;9.13;;;3.40;;
15716;SDS011;7960;50.908;4.204;2023-02-26T11:33:32;3.30;;;1.87;;
15716;SDS011;7960;50.908;4.204;2023-02-26T11:36:02;3.73;;;1.70;;
15716;SDS011;7960;50.908;4.204;2023-02-26T11:38:34;3.87;;;1.80;;
15716;SDS011;7960;50.908;4.204;2023-02-26T11:41:01;5.57;;;2.10;;
15716;SDS011;7960;50.908;4.204;2023-02-26T11:43:33;4.40;;;2.60;;
15716;SDS011;7960;50.908;4.204;2023-02-26T11:46:02;4.60;;;2.03;;
15716;SDS011;7960;50.908;4.204;2023-02-26T11:48:34;3.17;;;2.00;;
15716;SDS011;7960;50.908;4.204;2023-02-26T11:51:06;9.37;;;2.67;;
15716;SDS011;7960;50.908;4.204;2023-02-26T11:53:34;2.80;;;1.63;;
15716;SDS011;7960;50.908;4.204;2023-02-26T11:56:03;2.67;;;1.47;;
15716;SDS011;7960;50.908;4.204;2023-02-26T11:58:38;2.10;;;1.40;;
15716;SDS011;7960;50.908;4.204;2023-02-26T12:01:07;13.27;;;2.40;;
15716;SDS011;7960;50.908;4.204;2023-02-26T12:03:38;4.13;;;1.60;;
15716;SDS011;7960;50.908;4.204;2023-02-26T12:06:13;3.13;;;1.30;;
15716;SDS011;7960;50.908;4.204;2023-02-26T12:08:42;1.50;;;1.37;;
15716;SDS011;7960;50.908;4.204;2023-02-26T12:11:21;6.53;;;2.20;;
15716;SDS011;7960;50.908;4.204;2023-02-26T12:14:09;3.97;;;2.50;;
15716;SDS011;7960;50.908;4.204;2023-02-26T12:16:58;1.70;;;1.53;;
15716;SDS011;7960;50.908;4.204;2023-02-26T12:19:39;1.80;;;1.40;;
15716;SDS011;7960;50.908;4.204;2023-02-26T12:22:16;6.30;;;3.73;;
15716;SDS011;7960;50.908;4.204;2023-02-26T12:25:17;5.03;;;3.40;;
15716;SDS011;7960;50.908;4.204;2023-02-26T12:28:05;6.43;;;2.73;;
15716;SDS011;7960;50.908;4.204;2023-02-26T12:30:56;2.30;;;1.83;;
15716;SDS011;7960;50.908;4.204;2023-02-26T12:33:41;2.57;;;1.83;;
15716;SDS011;7960;50.908;4.204;2023-02-26T12:36:24;5.60;;;2.50;;
15716;SDS011;7960;50.908;4.204;2023-02-26T12:39:01;8.20;;;2.20;;
15716;SDS011;7960;50.908;4.204;2023-02-26T12:41:54;4.10;;;2.40;;
15716;SDS011;7960;50.908;4.204;2023-02-26T12:44:42;5.33;;;2.30;;
15716;SDS011;7960;50.908;4.204;2023-02-26T12:47:24;8.43;;;4.00;;
15716;SDS011;7960;50.908;4.204;2023-02-26T12:50:08;4.90;;;2.40;;
15716;SDS011;7960;50.908;4.204;2023-02-26T12:53:08;4.43;;;1.53;;
15716;SDS011;7960;50.908;4.204;2023-02-26T12:55:48;3.17;;;2.20;;
15716;SDS011;7960;50.908;4.204;2023-02-26T12:58:35;2.37;;;1.40;;
15716;SDS011;7960;50.908;4.204;2023-02-26T13:01:17;3.10;;;1.40;;
15716;SDS011;7960;50.908;4.204;2023-02-26T13:04:14;3.60;;;1.47;;
15716;SDS011;7960;50.908;4.204;2023-02-26T13:07:02;1.73;;;1.30;;
15716;SDS011;7960;50.908;4.204;2023-02-26T13:09:40;1.90;;;1.30;;
15716;SDS011;7960;50.908;4.204;2023-02-26T13:12:30;6.63;;;1.50;;
15716;SDS011;7960;50.908;4.204;2023-02-26T13:15:17;2.30;;;1.70;;
15716;SDS011;7960;50.908;4.204;2023-02-26T13:18:08;2.73;;;1.77;;
15716;SDS011;7960;50.908;4.204;2023-02-26T13:20:51;2.33;;;1.47;;
15716;SDS011;7960;50.908;4.204;2023-02-26T13:23:24;2.53;;;1.50;;
15716;SDS011;7960;50.908;4.204;2023-02-26T13:25:58;4.47;;;1.90;;
15716;SDS011;7960;50.908;4.204;2023-02-26T13:28:32;1.47;;;1.37;;
15716;SDS011;7960;50.908;4.204;2023-02-26T13:31:05;2.03;;;1.37;;
15716;SDS011;7960;50.908;4.204;2023-02-26T13:33:36;3.43;;;1.53;;
15716;SDS011;7960;50.908;4.204;2023-02-26T13:36:05;4.10;;;2.07;;
15716;SDS011;7960;50.908;4.204;2023-02-26T13:38:37;1.80;;;1.00;;
15716;SDS011;7960;50.908;4.204;2023-02-26T13:41:15;3.07;;;1.47;;
15716;SDS011;7960;50.908;4.204;2023-02-26T13:44:01;3.60;;;1.07;;
15716;SDS011;7960;50.908;4.204;2023-02-26T13:46:41;1.40;;;1.10;;
15716;SDS011;7960;50.908;4.204;2023-02-26T13:49:21;2.47;;;1.40;;
15716;SDS011;7960;50.908;4.204;2023-02-26T13:51:55;1.90;;;1.00;;
15716;SDS011;7960;50.908;4.204;2023-02-26T13:54:32;1.20;;;1.10;;
15716;SDS011;7960;50.908;4.204;2023-02-26T13:57:10;2.13;;;1.10;;
15716;SDS011;7960;50.908;4.204;2023-02-26T13:59:54;1.50;;;1.00;;
15716;SDS011;7960;50.908;4.204;2023-02-26T14:02:34;2.57;;;1.23;;
15716;SDS011;7960;50.908;4.204;2023-02-26T14:05:26;6.03;;;1.97;;
15716;SDS011;7960;50.908;4.204;2023-02-26T14:08:07;1.53;;;1.10;;
15716;SDS011;7960;50.908;4.204;2023-02-26T14:10:52;0.90;;;0.90;;
15716;SDS011;7960;50.908;4.204;2023-02-26T14:13:33;1.50;;;0.43;;
15716;SDS011;7960;50.908;4.204;2023-02-26T14:16:08;1.87;;;1.10;;
15716;SDS011;7960;50.908;4.204;2023-02-26T14:18:40;1.47;;;1.00;;
15716;SDS011;7960;50.908;4.204;2023-02-26T14:24:05;1.57;;;1.03;;
15716;SDS011;7960;50.908;4.204;2023-02-26T14:26:43;2.43;;;1.30;;
15716;SDS011;7960;50.908;4.204;2023-02-26T14:29:14;2.30;;;1.27;;
15716;SDS011;7960;50.908;4.204;2023-02-26T14:31:49;1.90;;;1.10;;
15716;SDS011;7960;50.908;4.204;2023-02-26T14:34:26;2.00;;;1.20;;
15716;SDS011;7960;50.908;4.204;2023-02-26T14:36:57;1.90;;;1.10;;
15716;SDS011;7960;50.908;4.204;2023-02-26T14:39:27;1.43;;;1.33;;
15716;SDS011;7960;50.908;4.204;2023-02-26T14:41:59;2.17;;;1.40;;
15716;SDS011;7960;50.908;4.204;2023-02-26T14:44:31;1.50;;;1.30;;
15716;SDS011;7960;50.908;4.204;2023-02-26T14:47:02;2.47;;;1.20;;
15716;SDS011;7960;50.908;4.204;2023-02-26T14:49:31;2.73;;;1.30;;
15716;SDS011;7960;50.908;4.204;2023-02-26T14:52:05;1.50;;;1.30;;
15716;SDS011;7960;50.908;4.204;2023-02-26T14:54:49;3.33;;;1.30;;
15716;SDS011;7960;50.908;4.204;2023-02-26T14:57:27;1.90;;;1.23;;
15716;SDS011;7960;50.908;4.204;2023-02-26T15:00:15;1.67;;;1.20;;
15716;SDS011;7960;50.908;4.204;2023-02-26T15:06:15;1.50;;;1.30;;
15716;SDS011;7960;50.908;4.204;2023-02-26T15:08:58;2.60;;;1.27;;
15716;SDS011;7960;50.908;4.204;2023-02-26T15:11:44;2.83;;;1.30;;
15716;SDS011;7960;50.908;4.204;2023-02-26T15:14:40;2.13;;;1.30;;
15716;SDS011;7960;50.908;4.204;2023-02-26T15:17:28;1.70;;;1.40;;
15716;SDS011;7960;50.908;4.204;2023-02-26T15:20:09;5.50;;;2.40;;
15716;SDS011;7960;50.908;4.204;2023-02-26T15:22:49;1.30;;;1.20;;
15716;SDS011;7960;50.908;4.204;2023-02-26T15:25:29;2.40;;;1.40;;
15716;SDS011;7960;50.908;4.204;2023-02-26T15:28:00;2.13;;;1.40;;
15716;SDS011;7960;50.908;4.204;2023-02-26T15:30:28;4.37;;;1.40;;
15716;SDS011;7960;50.908;4.204;2023-02-26T15:32:58;2.50;;;1.20;;
15716;SDS011;7960;50.908;4.204;2023-02-26T15:35:28;2.50;;;1.73;;